Nitro, West Virginia
Current Conditions -  °F | °C
As of 4:54 PM on Monday 20 Oct 2014 (Local Time) from KCRW Reporting Station
Overcast Overcast  
Wind Chill: 59°   Ceiling: 9000
Heat Index: 59°   Visibility: 10mi
Dew Point: 46°   Wind: 7mph
Humidity: 62%   Direction: 220°SW
Pressure: 29.94"   Gusts: NA
Location:  38.42°N, 81.84°W
Report Text: KCRW 202054Z 22006KT 10SM BKN090 OVC200 15/08 A2994 RMK AO2 SLP138 60001 T01500078 56011
Loading
Personal Weather Stations






























Interactive Weather Map
Tropical Storm Tracking
New forecast layout! Learn more

10-Day Weather Forecast

Advertisements
Track Severe Weather on mobile